Terminal Aerodrome Forecast
Issued by NWS

Home | Current Version | Previous Version | Text Only | Print | Product List | Glossary On
Versions: 1 2 3 4 5 6 7 8 9 10 11 12 13 14
000
FTUS43 KGRB 222334
TAFMTW
TAF
KMTW 222334Z 2300/2324 16007KT P6SM SKC
     FM230200 24005KT P6SM SKC
     FM231500 29008KT P6SM BKN250
     FM231700 05009KT P6SM SCT035 SCT070
     FM232000 07009KT P6SM BKN035 BKN070=

USA.gov is the U.S. government's official web portal to all federal, state and local government web resources and services.